createdAt,value
2022-11-04T00:00:13.152Z,10.59
2022-11-04T00:02:39.861Z,10.78
2022-11-04T00:05:06.764Z,10.54
2022-11-04T00:07:51.909Z,10.32
2022-11-04T00:10:38.480Z,9.96
2022-11-04T00:13:05.282Z,9.40
2022-11-04T00:15:54.990Z,10.40
2022-11-04T00:18:21.668Z,10.38
2022-11-04T00:21:06.909Z,10.43
2022-11-04T00:23:52.119Z,10.22
2022-11-04T00:26:37.184Z,10.09
2022-11-04T00:29:03.767Z,10.36
2022-11-04T00:31:48.970Z,10.23
2022-11-04T00:34:15.640Z,10.09
2022-11-04T00:36:42.210Z,10.73
2022-11-04T00:39:09.024Z,10.19
2022-11-04T00:41:35.620Z,9.33
2022-11-04T00:44:03.535Z,10.66
2022-11-04T00:46:31.412Z,10.62
2022-11-04T00:48:58.539Z,10.25
2022-11-04T00:51:25.348Z,9.76
2022-11-04T00:53:52.018Z,9.80
2022-11-04T00:56:18.792Z,10.53
2022-11-04T00:58:45.499Z,9.91
2022-11-04T01:01:13.691Z,10.37
2022-11-04T01:03:40.391Z,9.80
2022-11-04T01:06:07.006Z,8.79
2022-11-04T01:08:33.697Z,9.00
2022-11-04T01:11:07.461Z,9.74
2022-11-04T01:13:34.222Z,9.41
2022-11-04T01:16:01.560Z,10.08
2022-11-04T01:18:28.181Z,9.60
2022-11-04T01:20:54.939Z,9.65
2022-11-04T01:23:21.564Z,9.64
2022-11-04T01:25:48.237Z,9.57
2022-11-04T01:28:15.544Z,10.22
2022-11-04T01:30:42.147Z,9.29
2022-11-04T01:33:08.924Z,10.39
2022-11-04T01:35:35.582Z,9.86
2022-11-04T01:38:02.200Z,9.83
2022-11-04T01:41:07.840Z,10.56
2022-11-04T01:43:43.479Z,10.53
2022-11-04T01:46:10.151Z,8.32
2022-11-04T01:48:36.838Z,9.21
2022-11-04T01:51:03.498Z,8.85
2022-11-04T01:53:34.984Z,9.22
2022-11-04T01:56:04.481Z,9.52
2022-11-04T01:58:32.805Z,9.67
2022-11-04T02:00:59.491Z,9.59
2022-11-04T02:03:32.720Z,9.22
2022-11-04T02:05:59.349Z,9.62
2022-11-04T02:08:25.953Z,9.85
2022-11-04T02:10:56.517Z,9.64
2022-11-04T02:13:23.134Z,9.59
2022-11-04T02:16:17.472Z,10.50
2022-11-04T02:19:11.907Z,10.50
2022-11-04T02:22:18.383Z,10.49
2022-11-04T02:25:04.434Z,10.46
2022-11-04T02:27:37.973Z,10.09
2022-11-04T02:30:08.479Z,10.35
2022-11-04T02:32:37.977Z,10.38
2022-11-04T02:35:24.363Z,10.36
2022-11-04T02:38:07.374Z,10.34
2022-11-04T02:40:41.593Z,10.28
2022-11-04T02:43:39.566Z,10.31
2022-11-04T02:46:18.342Z,10.31
2022-11-04T02:48:47.776Z,9.09
2022-11-04T02:51:28.204Z,9.74
2022-11-04T02:54:09.737Z,8.24
2022-11-04T02:56:41.715Z,9.48
2022-11-04T02:59:11.854Z,8.91
2022-11-04T03:01:39.932Z,9.16
2022-11-04T03:04:19.642Z,9.49
2022-11-04T03:06:47.719Z,10.46
2022-11-04T03:09:14.508Z,10.45
2022-11-04T03:11:42.494Z,8.93
2022-11-04T03:14:13.356Z,9.95
2022-11-04T03:16:43.157Z,9.48
2022-11-04T03:19:09.698Z,10.43
2022-11-04T03:21:39.185Z,8.70
2022-11-04T03:24:05.933Z,9.13
2022-11-04T03:26:41.806Z,10.05
2022-11-04T03:29:19.650Z,8.89
2022-11-04T03:31:49.399Z,10.33
2022-11-04T03:34:16.035Z,9.61
2022-11-04T03:36:42.674Z,9.30
2022-11-04T03:39:09.294Z,8.51
2022-11-04T03:41:48.962Z,10.28
2022-11-04T03:44:15.572Z,8.76
2022-11-04T03:46:42.202Z,9.75
2022-11-04T03:49:08.856Z,9.99
2022-11-04T03:51:35.495Z,8.85
2022-11-04T03:54:02.111Z,10.01
2022-11-04T03:56:44.867Z,8.99
2022-11-04T03:59:43.696Z,9.93
2022-11-04T04:02:15.172Z,9.86
2022-11-04T04:04:52.957Z,9.68
2022-11-04T04:07:44.397Z,9.82
2022-11-04T04:10:35.521Z,8.82
2022-11-04T04:13:03.419Z,9.23
2022-11-04T04:15:34.811Z,8.70
2022-11-04T04:18:03.372Z,7.99
2022-11-04T04:20:30.442Z,8.68
2022-11-04T04:23:35.889Z,9.88
2022-11-04T04:26:22.297Z,9.13
2022-11-04T04:28:48.926Z,8.10
2022-11-04T04:31:35.687Z,8.75
2022-11-04T04:34:03.030Z,9.44
2022-11-04T04:36:30.795Z,9.45
2022-11-04T04:39:15.962Z,9.17
2022-11-04T04:42:01.011Z,9.06
2022-11-04T04:44:46.730Z,9.45
2022-11-04T04:47:20.173Z,9.10
2022-11-04T04:49:53.800Z,9.76
2022-11-04T04:52:20.528Z,8.93
2022-11-04T04:54:47.232Z,9.14
2022-11-04T04:57:13.968Z,8.50
2022-11-04T04:59:40.593Z,8.77
2022-11-04T05:02:07.403Z,8.59
2022-11-04T05:04:34.110Z,9.04
2022-11-04T05:07:07.876Z,8.85
2022-11-04T05:09:34.524Z,9.17
2022-11-04T05:12:01.136Z,8.95
2022-11-04T05:14:27.740Z,9.01
2022-11-04T05:16:54.507Z,10.00
2022-11-04T05:19:21.076Z,8.85
2022-11-04T05:21:47.650Z,9.84
2022-11-04T05:24:14.228Z,10.17
2022-11-04T05:26:40.845Z,10.15
2022-11-04T05:29:07.637Z,9.85
2022-11-04T05:31:34.371Z,9.48
2022-11-04T05:34:01.275Z,9.59
2022-11-04T05:40:27.268Z,9.43
2022-11-04T05:42:53.978Z,9.57
2022-11-04T05:45:20.673Z,9.37
2022-11-04T05:47:47.274Z,9.24
2022-11-04T05:50:13.907Z,9.31
2022-11-04T05:52:40.598Z,10.25
2022-11-04T05:55:07.486Z,10.03
2022-11-04T05:57:35.629Z,9.75
2022-11-04T06:00:02.995Z,10.48
2022-11-04T06:02:29.782Z,9.46
2022-11-04T06:04:56.472Z,10.25
2022-11-04T06:07:23.099Z,10.21
2022-11-04T06:09:49.713Z,10.14
2022-11-04T06:12:16.843Z,10.25
2022-11-04T06:14:43.912Z,10.57
2022-11-04T06:17:17.728Z,10.38
2022-11-04T06:19:44.369Z,10.51
2022-11-04T06:22:14.867Z,10.79
2022-11-04T06:24:41.753Z,9.97
2022-11-04T06:27:09.009Z,10.37
2022-11-04T06:29:40.003Z,10.25
2022-11-04T06:32:10.454Z,10.35
2022-11-04T06:34:37.411Z,10.95
2022-11-04T06:37:04.066Z,10.28
2022-11-04T06:39:30.687Z,10.84
2022-11-04T06:41:59.697Z,10.27
2022-11-04T06:44:29.016Z,10.52
2022-11-04T06:46:55.628Z,11.16
2022-11-04T06:49:23.253Z,10.33
2022-11-04T06:51:50.046Z,10.48
2022-11-04T06:54:16.819Z,11.03
2022-11-04T06:56:43.670Z,11.05
2022-11-04T06:59:16.255Z,11.20
2022-11-04T07:01:43.010Z,10.67
2022-11-04T07:04:11.825Z,11.16
2022-11-04T07:06:41.181Z,11.70
2022-11-04T07:09:11.620Z,11.82
2022-11-04T07:11:38.372Z,10.72
2022-11-04T07:14:05.089Z,11.12
2022-11-04T07:16:31.659Z,11.67
2022-11-04T07:18:58.310Z,11.51
2022-11-04T07:21:24.928Z,11.79
2022-11-04T07:23:51.680Z,11.71
2022-11-04T07:26:18.267Z,11.71
2022-11-04T07:28:44.983Z,11.93
2022-11-04T07:31:12.500Z,12.07
2022-11-04T07:34:04.035Z,12.11
2022-11-04T07:36:30.677Z,11.74
2022-11-04T07:38:57.265Z,12.08
2022-11-04T07:41:24.106Z,11.83
2022-11-04T07:43:53.549Z,11.48
2022-11-04T07:46:20.511Z,11.78
2022-11-04T07:48:47.281Z,11.64
2022-11-04T07:51:16.413Z,11.68
2022-11-04T07:53:43.085Z,10.58
2022-11-04T07:56:13.523Z,11.35
2022-11-04T07:58:40.520Z,11.05
2022-11-04T08:01:09.121Z,10.90
2022-11-04T08:03:36.861Z,11.20
2022-11-04T08:06:04.482Z,11.22
2022-11-04T08:08:31.289Z,11.83
2022-11-04T08:11:00.591Z,11.53
2022-11-04T08:13:28.274Z,11.83
2022-11-04T08:15:55.390Z,11.46
2022-11-04T08:18:22.096Z,12.06
2022-11-04T08:20:52.155Z,11.42
2022-11-04T08:23:19.054Z,11.23
2022-11-04T08:25:45.682Z,11.92
2022-11-04T08:28:17.719Z,11.97
2022-11-04T08:30:58.867Z,11.25
2022-11-04T08:33:26.515Z,10.87
2022-11-04T08:35:54.856Z,11.85
2022-11-04T08:38:21.516Z,10.78
2022-11-04T08:40:48.169Z,11.11
2022-11-04T08:43:14.798Z,10.95
2022-11-04T08:45:45.682Z,11.20
2022-11-04T08:48:13.509Z,11.18
2022-11-04T08:50:40.269Z,11.79
2022-11-04T08:53:07.358Z,11.54
2022-11-04T08:55:34.295Z,11.58
2022-11-04T08:58:01.270Z,11.39
2022-11-04T09:00:27.924Z,11.66
2022-11-04T09:02:55.684Z,11.39
2022-11-04T09:05:22.738Z,10.59
2022-11-04T09:07:49.380Z,11.45
2022-11-04T09:10:16.104Z,10.95
2022-11-04T09:12:43.313Z,12.00
2022-11-04T09:15:10.280Z,12.09
2022-11-04T09:17:37.251Z,11.00
2022-11-04T09:20:04.918Z,12.35
2022-11-04T09:22:32.007Z,12.53
2022-11-04T09:24:59.022Z,12.66
2022-11-04T09:27:25.691Z,12.74
2022-11-04T09:29:52.419Z,12.42
2022-11-04T09:32:19.140Z,12.69
2022-11-04T09:34:45.839Z,12.80
2022-11-04T09:37:13.010Z,13.11
2022-11-04T09:39:39.628Z,11.73
2022-11-04T09:42:22.907Z,12.65
2022-11-04T09:47:50.043Z,12.03
2022-11-04T09:50:21.399Z,13.01
2022-11-04T09:52:51.337Z,11.27
2022-11-04T09:55:41.901Z,13.08
2022-11-04T09:58:09.640Z,12.78
2022-11-04T10:00:36.869Z,12.00
2022-11-04T10:03:16.722Z,13.08
2022-11-04T10:05:56.242Z,13.04
2022-11-04T10:08:46.327Z,12.93
2022-11-04T10:11:16.896Z,13.14
2022-11-04T10:13:46.909Z,13.13
2022-11-04T10:16:16.521Z,13.22
2022-11-04T10:18:46.276Z,13.30
2022-11-04T10:21:15.783Z,13.30
2022-11-04T10:23:42.584Z,13.33
2022-11-04T10:27:00.839Z,13.31
2022-11-04T10:29:35.103Z,12.85
2022-11-04T10:32:03.184Z,12.61
2022-11-04T10:34:36.742Z,12.45
2022-11-04T10:37:03.637Z,12.63
2022-11-04T10:39:31.540Z,12.09
2022-11-04T10:41:58.391Z,11.75
2022-11-04T10:44:29.248Z,12.34
2022-11-04T10:47:27.918Z,12.35
2022-11-04T10:50:28.257Z,12.85
2022-11-04T10:53:12.589Z,11.76
2022-11-04T10:56:03.051Z,12.42
2022-11-04T10:58:31.591Z,11.47
2022-11-04T11:00:59.332Z,11.62
2022-11-04T11:03:31.178Z,11.50
2022-11-04T11:06:15.161Z,11.83
2022-11-04T11:08:43.156Z,12.07
2022-11-04T11:11:09.864Z,12.14
2022-11-04T11:13:41.053Z,11.00
2022-11-04T11:16:27.890Z,11.76
2022-11-04T11:19:27.187Z,12.55
2022-11-04T11:21:56.344Z,11.99
2022-11-04T11:24:24.974Z,11.42
2022-11-04T11:27:01.403Z,12.12
2022-11-04T11:29:32.113Z,12.40
2022-11-04T11:31:59.264Z,11.75
2022-11-04T11:34:28.411Z,11.26
2022-11-04T11:36:55.776Z,11.37
2022-11-04T11:39:28.175Z,11.09
2022-11-04T11:41:56.611Z,12.56
2022-11-04T11:44:34.087Z,11.48
2022-11-04T11:47:03.046Z,11.40
2022-11-04T11:49:32.729Z,12.38
2022-11-04T11:52:29.916Z,12.58
2022-11-04T11:55:01.977Z,12.22
2022-11-04T12:00:40.319Z,10.48
2022-11-04T12:03:31.233Z,11.77
2022-11-04T12:06:20.540Z,12.59
2022-11-04T12:09:19.018Z,12.55
2022-11-04T12:11:55.428Z,12.48
2022-11-04T12:14:49.077Z,12.48
2022-11-04T12:17:40.884Z,12.46
2022-11-04T12:20:27.719Z,12.42
2022-11-04T12:23:08.381Z,12.19
2022-11-04T12:26:04.487Z,12.35
2022-11-04T12:28:53.950Z,11.67
2022-11-04T12:31:42.422Z,11.31
2022-11-04T12:34:15.028Z,11.51
2022-11-04T12:37:04.553Z,11.95
2022-11-04T12:39:53.464Z,11.01
2022-11-04T12:42:44.121Z,11.74
2022-11-04T12:45:16.426Z,12.19
2022-11-04T12:47:46.462Z,11.65
2022-11-04T12:50:34.566Z,11.34
2022-11-04T12:53:01.069Z,12.12
2022-11-04T12:55:44.010Z,12.09
2022-11-04T12:58:14.780Z,12.06
2022-11-04T13:00:41.514Z,10.87
2022-11-04T13:03:24.410Z,11.19
2022-11-04T13:05:54.240Z,11.99
2022-11-04T13:08:41.747Z,11.37
2022-11-04T13:11:24.568Z,11.92
2022-11-04T13:14:29.931Z,11.87
2022-11-04T13:17:00.228Z,10.94
2022-11-04T13:19:34.771Z,11.60
2022-11-04T13:22:03.837Z,11.50
2022-11-04T13:24:31.946Z,11.15
2022-11-04T13:27:01.789Z,10.82
2022-11-04T13:29:28.469Z,10.72
2022-11-04T13:32:20.407Z,11.76
2022-11-04T13:34:57.068Z,11.74
2022-11-04T13:37:55.852Z,11.78
2022-11-04T13:40:45.177Z,11.24
2022-11-04T13:43:38.399Z,11.68
2022-11-04T13:46:11.054Z,11.67
2022-11-04T13:48:39.117Z,11.62
2022-11-04T13:51:07.409Z,10.44
2022-11-04T13:53:44.561Z,10.68
2022-11-04T13:56:33.551Z,11.73
2022-11-04T13:59:27.786Z,11.46
2022-11-04T14:02:21.226Z,11.77
2022-11-04T14:04:48.424Z,11.28
2022-11-04T14:07:17.932Z,11.12
2022-11-04T14:09:44.504Z,11.90
2022-11-04T14:12:17.732Z,11.95
2022-11-04T14:14:48.782Z,11.97
2022-11-04T14:17:33.512Z,11.97
2022-11-04T14:20:11.557Z,11.35
2022-11-04T14:22:44.213Z,11.98
2022-11-04T14:25:30.364Z,11.54
2022-11-04T14:28:02.010Z,11.41
2022-11-04T14:30:37.618Z,11.96
2022-11-04T14:33:08.895Z,10.67
2022-11-04T14:35:35.837Z,10.87
2022-11-04T14:38:07.087Z,10.83
2022-11-04T14:40:51.691Z,11.68
2022-11-04T14:43:24.497Z,11.03
2022-11-04T14:45:51.141Z,10.64
2022-11-04T14:48:19.444Z,11.77
2022-11-04T14:50:49.795Z,11.58
2022-11-04T14:53:23.803Z,10.84
2022-11-04T14:56:03.402Z,10.63
2022-11-04T14:58:30.090Z,11.23
2022-11-04T15:00:59.647Z,11.86
2022-11-04T15:04:09.622Z,10.78
2022-11-04T15:06:15.341Z,11.79
2022-11-04T15:09:27.959Z,12.04
2022-11-04T15:12:32.981Z,11.50
2022-11-04T15:15:00.018Z,10.92
2022-11-04T15:17:28.621Z,11.41
2022-11-04T15:19:56.732Z,11.61
2022-11-04T15:22:23.505Z,11.67
2022-11-04T15:24:52.959Z,11.73
2022-11-04T15:27:23.272Z,10.75
2022-11-04T15:30:16.724Z,10.67
2022-11-04T15:32:53.364Z,10.48
2022-11-04T15:35:20.055Z,11.17
2022-11-04T15:37:47.420Z,10.56
2022-11-04T15:40:14.484Z,10.01
2022-11-04T15:42:43.327Z,10.31
2022-11-04T15:45:22.616Z,11.68
2022-11-04T15:47:49.992Z,10.41
2022-11-04T15:50:23.556Z,10.43
2022-11-04T15:52:53.660Z,10.37
2022-11-04T15:55:25.634Z,9.60
2022-11-04T15:57:52.280Z,10.61
2022-11-04T16:00:30.570Z,11.44
2022-11-04T16:03:00.394Z,10.47
2022-11-04T16:05:33.293Z,10.63
2022-11-04T16:11:40.638Z,11.46
2022-11-04T16:14:26.933Z,11.26
2022-11-04T16:16:53.554Z,11.67
2022-11-04T16:19:23.494Z,10.11
2022-11-04T16:21:57.945Z,10.09
2022-11-04T16:24:25.742Z,10.98
2022-11-04T16:26:54.898Z,10.68
2022-11-04T16:29:25.820Z,11.11
2022-11-04T16:32:08.436Z,11.72
2022-11-04T16:34:35.529Z,11.10
2022-11-04T16:37:02.408Z,10.74
2022-11-04T16:39:29.100Z,10.80
2022-11-04T16:41:56.816Z,10.22
2022-11-04T16:44:23.518Z,10.91
2022-11-04T16:46:50.177Z,10.93
2022-11-04T16:49:18.560Z,10.78
2022-11-04T16:51:46.074Z,10.24
2022-11-04T16:54:12.773Z,10.46
2022-11-04T16:56:39.442Z,10.25
2022-11-04T16:59:06.075Z,10.07
2022-11-04T17:01:32.808Z,9.45
2022-11-04T17:03:59.658Z,10.30
2022-11-04T17:06:26.313Z,10.38
2022-11-04T17:08:53.286Z,10.36
2022-11-04T17:11:19.917Z,11.28
2022-11-04T17:13:46.483Z,10.54
2022-11-04T17:16:13.644Z,9.97
2022-11-04T17:18:40.500Z,9.77
2022-11-04T17:21:08.415Z,9.64
2022-11-04T17:23:35.046Z,10.55
2022-11-04T17:26:01.721Z,11.17
2022-11-04T17:28:28.401Z,9.78
2022-11-04T17:30:55.214Z,9.15
2022-11-04T17:33:22.147Z,10.22
2022-11-04T17:35:49.538Z,9.69
2022-11-04T17:38:18.099Z,10.39
2022-11-04T17:41:03.215Z,10.49
2022-11-04T17:43:48.359Z,10.43
2022-11-04T17:46:33.480Z,9.80
2022-11-04T17:49:04.925Z,9.16
2022-11-04T17:51:31.715Z,11.11
2022-11-04T17:53:58.342Z,10.22
2022-11-04T17:56:25.258Z,9.61
2022-11-04T17:58:52.162Z,10.90
2022-11-04T18:01:20.679Z,10.05
2022-11-04T18:03:47.543Z,10.19
2022-11-04T18:06:14.217Z,11.09
2022-11-04T18:08:40.952Z,11.23
2022-11-04T18:11:09.810Z,10.38
2022-11-04T18:13:36.484Z,10.41
2022-11-04T18:16:13.169Z,10.65
2022-11-04T18:18:40.250Z,11.05
2022-11-04T18:21:07.896Z,11.00
2022-11-04T18:23:34.711Z,11.11
2022-11-04T18:26:02.975Z,10.67
2022-11-04T18:28:29.645Z,10.38
2022-11-04T18:30:56.284Z,10.65
2022-11-04T18:33:22.927Z,10.56
2022-11-04T18:35:49.585Z,10.28
2022-11-04T18:38:16.168Z,11.01
2022-11-04T18:40:42.800Z,10.09
2022-11-04T18:43:09.784Z,11.23
2022-11-04T18:45:36.801Z,11.10
2022-11-04T18:48:03.714Z,10.04
2022-11-04T18:50:30.421Z,10.18
2022-11-04T18:52:57.123Z,10.34
2022-11-04T18:55:24.405Z,11.12
2022-11-04T18:57:55.380Z,10.38
2022-11-04T19:00:22.639Z,11.13
2022-11-04T19:02:49.280Z,10.84
2022-11-04T19:05:17.871Z,10.17
2022-11-04T19:07:44.550Z,11.00
2022-11-04T19:10:11.681Z,10.88
2022-11-04T19:12:56.962Z,10.97
2022-11-04T19:15:34.402Z,11.15
2022-11-04T19:18:01.413Z,9.75
2022-11-04T19:20:28.216Z,9.33
2022-11-04T19:22:54.864Z,10.34
2022-11-04T19:25:21.545Z,10.70
2022-11-04T19:28:05.214Z,9.76
2022-11-04T19:30:34.937Z,11.16
2022-11-04T19:33:01.766Z,10.45
2022-11-04T19:35:28.906Z,10.61
2022-11-04T19:37:55.806Z,10.23
2022-11-04T19:40:22.469Z,9.45
2022-11-04T19:43:07.673Z,9.73
2022-11-04T19:45:34.289Z,9.83
2022-11-04T19:48:01.242Z,9.84
2022-11-04T19:50:27.883Z,8.74
2022-11-04T19:52:54.527Z,8.64
2022-11-04T19:55:21.205Z,8.73
2022-11-04T19:57:47.933Z,7.22
2022-11-04T20:00:15.355Z,8.99
2022-11-04T20:02:42.077Z,8.96
2022-11-04T20:05:09.827Z,8.93
2022-11-04T20:07:36.582Z,9.49
2022-11-04T20:10:03.182Z,9.33
2022-11-04T20:12:48.608Z,9.64
2022-11-04T20:15:15.052Z,9.72
2022-11-04T20:17:41.638Z,9.26
2022-11-04T20:20:08.582Z,8.87
2022-11-04T20:22:35.222Z,8.10
2022-11-04T20:25:01.906Z,8.99
2022-11-04T20:27:28.573Z,7.79
2022-11-04T20:29:55.153Z,8.69
2022-11-04T20:32:21.831Z,8.78
2022-11-04T20:34:48.590Z,8.51
2022-11-04T20:37:15.236Z,8.18
2022-11-04T20:39:41.985Z,8.80
2022-11-04T20:42:08.672Z,9.40
2022-11-04T20:44:35.303Z,7.59
2022-11-04T20:47:01.918Z,8.01
2022-11-04T20:49:28.554Z,8.96
2022-11-04T20:51:55.875Z,8.99
2022-11-04T20:54:22.572Z,8.67
2022-11-04T20:56:49.221Z,8.14
2022-11-04T20:59:16.733Z,8.26
2022-11-04T21:01:44.510Z,8.36
2022-11-04T21:04:14.957Z,7.55
2022-11-04T21:06:42.035Z,8.63
2022-11-04T21:09:09.580Z,8.30
2022-11-04T21:11:36.204Z,8.83
2022-11-04T21:14:03.524Z,8.53
2022-11-04T21:16:30.756Z,8.79
2022-11-04T21:18:58.091Z,8.25
2022-11-04T21:21:27.455Z,8.61
2022-11-04T21:23:58.096Z,8.71
2022-11-04T21:26:25.988Z,7.95
2022-11-04T21:29:01.612Z,8.11
2022-11-04T21:31:28.772Z,7.94
2022-11-04T21:33:55.810Z,7.22
2022-11-04T21:36:22.596Z,7.29
2022-11-04T21:38:49.753Z,8.32
2022-11-04T21:41:18.288Z,8.14
2022-11-04T21:43:45.002Z,8.18
2022-11-04T21:46:13.666Z,7.11
2022-11-04T21:48:40.649Z,8.28
2022-11-04T21:51:08.096Z,8.42
2022-11-04T21:53:34.658Z,6.67
2022-11-04T21:56:11.218Z,8.16
2022-11-04T21:58:37.912Z,8.45
2022-11-04T22:01:05.678Z,8.12
2022-11-04T22:03:32.613Z,7.65
2022-11-04T22:06:06.725Z,7.37
2022-11-04T22:08:33.776Z,7.66
2022-11-04T22:11:16.827Z,8.14
2022-11-04T22:13:43.422Z,7.66
2022-11-04T22:16:14.514Z,7.92
2022-11-04T22:18:41.685Z,7.20
2022-11-04T22:21:21.707Z,8.41
2022-11-04T22:23:48.354Z,8.02
2022-11-04T22:26:18.419Z,8.05
2022-11-04T22:28:45.131Z,6.83
2022-11-04T22:31:22.535Z,8.15
2022-11-04T22:33:50.248Z,7.79
2022-11-04T22:36:17.117Z,7.96
2022-11-04T22:38:44.017Z,8.42
2022-11-04T22:41:13.354Z,7.80
2022-11-04T22:43:40.017Z,7.70
2022-11-04T22:46:12.759Z,8.35
2022-11-04T22:48:39.485Z,7.85
2022-11-04T22:51:07.065Z,7.52
2022-11-04T22:53:33.679Z,7.97
2022-11-04T22:56:00.808Z,7.47
2022-11-04T22:58:28.087Z,6.22
2022-11-04T23:00:56.251Z,7.49
2022-11-04T23:03:23.262Z,7.50
2022-11-04T23:05:53.861Z,7.58
2022-11-04T23:08:20.481Z,8.18
2022-11-04T23:11:05.822Z,7.32
2022-11-04T23:13:50.986Z,8.26
2022-11-04T23:16:36.198Z,7.93
2022-11-04T23:19:02.874Z,7.74
2022-11-04T23:21:48.304Z,6.46
2022-11-04T23:24:33.426Z,8.16
2022-11-04T23:27:00.074Z,6.50
2022-11-04T23:29:45.449Z,7.92
2022-11-04T23:32:12.050Z,8.16
2022-11-04T23:34:57.196Z,7.27
2022-11-04T23:37:23.801Z,7.74
2022-11-04T23:39:50.410Z,7.60
2022-11-04T23:42:19.087Z,7.47
2022-11-04T23:45:08.606Z,7.76
2022-11-04T23:47:58.323Z,7.62
2022-11-04T23:50:44.424Z,7.59
2022-11-04T23:53:33.567Z,7.71
2022-11-04T23:56:18.892Z,7.47
2022-11-04T23:59:04.254Z,7.73
